Time;durP1;ratioP1;P1;durP2;ratioP2;P2;SDS_P1;SDS_P2;PMS_P1;PMS_P2;Temp;Humidity;BMP_temperature;BMP_pressure;BME280_temperature;BME280_humidity;BME280_pressure;Samples;Min_cycle;Max_cycle;Signal;HPM_P1;HPM_P2
2024/01/28 00:00:18;;;;;;;15.77;6.75;;;3.20;99.90;;;;;;5036977;28;20065;-82
2024/01/28 00:02:44;;;;;;;16.90;6.53;;;3.20;99.90;;;;;;5009471;28;20081;-82
2024/01/28 00:05:13;;;;;;;14.30;7.28;;;3.10;99.90;;;;;;5013567;28;20081;-82
2024/01/28 00:07:39;;;;;;;17.05;6.75;;;3.10;99.90;;;;;;4997079;28;20042;-82
2024/01/28 00:10:07;;;;;;;17.17;6.90;;;3.00;99.90;;;;;;5027941;28;20038;-82
2024/01/28 00:12:32;;;;;;;13.10;5.82;;;3.10;99.90;;;;;;5031784;28;20064;-82
2024/01/28 00:14:59;;;;;;;19.10;7.25;;;3.10;99.90;;;;;;5016748;28;20045;-82
2024/01/28 00:17:24;;;;;;;15.75;6.38;;;3.10;99.90;;;;;;5015957;28;20037;-82
2024/01/28 00:19:50;;;;;;;17.67;6.72;;;3.10;99.90;;;;;;5032320;28;20113;-82
2024/01/28 00:22:16;;;;;;;15.82;6.95;;;3.10;99.90;;;;;;5032674;28;20037;-82
2024/01/28 00:24:41;;;;;;;14.82;6.47;;;3.20;99.90;;;;;;5016488;28;20084;-82
2024/01/28 00:27:07;;;;;;;16.20;6.80;;;3.10;99.90;;;;;;5030886;28;20132;-82
2024/01/28 00:29:33;;;;;;;16.33;5.88;;;3.20;99.90;;;;;;5014859;28;20046;-82
2024/01/28 00:32:01;;;;;;;11.55;5.88;;;3.10;99.90;;;;;;5031745;28;20042;-82
2024/01/28 00:34:27;;;;;;;15.77;5.85;;;3.20;99.90;;;;;;5016326;28;20441;-82
2024/01/28 00:36:53;;;;;;;15.23;5.47;;;3.20;99.90;;;;;;5016590;28;20033;-82
2024/01/28 00:39:19;;;;;;;11.23;6.43;;;3.10;99.90;;;;;;5015023;28;20092;-81
2024/01/28 00:41:45;;;;;;;14.73;6.07;;;3.10;99.90;;;;;;5044474;28;20402;-82
2024/01/28 00:44:11;;;;;;;19.83;6.68;;;3.00;99.90;;;;;;5016157;28;20045;-82
2024/01/28 00:46:37;;;;;;;13.90;5.93;;;2.90;99.90;;;;;;5032619;28;20049;-82
2024/01/28 00:49:03;;;;;;;16.00;6.50;;;2.90;99.90;;;;;;5030072;28;20040;-82
2024/01/28 00:51:29;;;;;;;12.75;6.35;;;2.80;99.90;;;;;;5014379;28;20055;-82
2024/01/28 00:53:55;;;;;;;15.45;5.80;;;2.80;99.90;;;;;;5031726;28;20052;-82
2024/01/28 00:56:21;;;;;;;16.75;6.15;;;2.80;99.90;;;;;;5032448;28;20038;-82
2024/01/28 00:58:46;;;;;;;16.70;6.32;;;2.70;99.90;;;;;;5021457;28;20041;-82
2024/01/28 01:01:12;;;;;;;16.65;6.60;;;2.80;99.90;;;;;;5034199;28;20513;-82
2024/01/28 01:03:38;;;;;;;14.07;6.15;;;2.80;99.90;;;;;;5042795;28;20481;-82
2024/01/28 01:06:05;;;;;;;15.48;6.57;;;2.80;99.90;;;;;;5070828;28;20039;-82
2024/01/28 01:08:32;;;;;;;12.75;5.90;;;2.90;99.90;;;;;;5055388;28;20378;-82
2024/01/28 01:10:58;;;;;;;11.77;6.00;;;2.80;99.90;;;;;;5031539;28;20044;-82
2024/01/28 01:13:24;;;;;;;12.45;6.63;;;2.80;99.90;;;;;;5055472;28;20036;-82
2024/01/28 01:15:50;;;;;;;13.48;6.30;;;2.80;99.90;;;;;;5070491;28;20078;-82
2024/01/28 01:18:15;;;;;;;16.70;7.03;;;2.80;99.90;;;;;;5038871;28;20044;-82
2024/01/28 01:20:41;;;;;;;13.00;5.68;;;2.80;99.90;;;;;;5054372;28;20029;-82
2024/01/28 01:23:07;;;;;;;17.80;6.68;;;2.90;99.90;;;;;;5050945;28;20124;-82
2024/01/28 01:25:32;;;;;;;15.18;5.72;;;3.00;99.90;;;;;;5046710;28;20470;-82
2024/01/28 01:27:58;;;;;;;12.05;5.88;;;3.10;99.90;;;;;;5037300;28;20044;-82
2024/01/28 01:30:24;;;;;;;16.23;6.07;;;3.10;99.90;;;;;;5037801;28;20477;-82
2024/01/28 01:32:49;;;;;;;16.95;5.88;;;3.10;99.90;;;;;;5037478;28;20409;-82
2024/01/28 01:35:15;;;;;;;15.57;6.07;;;3.10;99.90;;;;;;5037728;28;20056;-82
2024/01/28 01:37:41;;;;;;;13.05;5.95;;;3.10;99.90;;;;;;5037946;28;20040;-82
2024/01/28 01:40:07;;;;;;;13.70;6.03;;;3.10;99.90;;;;;;5054404;28;20032;-82
2024/01/28 01:42:33;;;;;;;15.48;6.05;;;3.00;99.90;;;;;;5050478;28;20029;-82
2024/01/28 01:44:59;;;;;;;15.80;6.45;;;2.90;99.90;;;;;;5051219;28;20040;-82
2024/01/28 01:47:26;;;;;;;15.65;6.35;;;2.90;99.90;;;;;;5054260;28;20082;-82
2024/01/28 01:49:52;;;;;;;13.98;5.85;;;2.80;99.90;;;;;;5054993;28;20045;-82
2024/01/28 01:52:20;;;;;;;12.00;5.90;;;2.80;99.90;;;;;;5053494;28;20033;-82
2024/01/28 01:54:47;;;;;;;15.15;5.85;;;2.80;99.90;;;;;;5054968;28;20401;-82
2024/01/28 01:57:14;;;;;;;13.68;5.40;;;2.80;99.90;;;;;;5045971;28;20044;-81
2024/01/28 01:59:41;;;;;;;14.23;5.85;;;2.70;99.90;;;;;;5054745;28;20091;-82
2024/01/28 02:02:10;;;;;;;15.73;6.35;;;2.70;99.90;;;;;;5036348;28;20509;-81
2024/01/28 02:04:36;;;;;;;14.60;5.68;;;2.70;99.90;;;;;;5054639;28;20037;-82
2024/01/28 02:07:02;;;;;;;13.77;6.53;;;2.70;99.90;;;;;;5053984;28;20038;-82
2024/01/28 02:09:28;;;;;;;12.82;5.25;;;2.90;99.90;;;;;;5054818;28;20032;-82
2024/01/28 02:11:54;;;;;;;11.00;5.40;;;2.90;99.90;;;;;;5053445;28;20032;-82
2024/01/28 02:14:21;;;;;;;11.45;4.90;;;3.00;99.90;;;;;;5033603;28;20037;-82
2024/01/28 02:16:48;;;;;;;16.13;5.50;;;3.10;99.90;;;;;;5054275;28;20511;-82
2024/01/28 02:19:14;;;;;;;15.23;5.75;;;3.20;99.90;;;;;;5038026;28;20041;-82
2024/01/28 02:21:40;;;;;;;12.57;5.57;;;3.20;99.90;;;;;;5053260;28;20036;-82
2024/01/28 02:24:05;;;;;;;11.70;5.50;;;3.20;99.90;;;;;;5038309;28;20048;-82
2024/01/28 02:26:31;;;;;;;15.75;6.03;;;3.20;99.90;;;;;;5039428;28;20547;-82
2024/01/28 02:28:57;;;;;;;12.43;5.88;;;3.30;99.90;;;;;;5056447;28;20048;-81
2024/01/28 02:31:23;;;;;;;12.57;4.70;;;3.30;99.90;;;;;;5053661;28;20041;-80
2024/01/28 02:33:48;;;;;;;14.52;5.10;;;3.30;99.90;;;;;;5057931;28;20560;-82
2024/01/28 02:36:14;;;;;;;18.45;7.10;;;3.30;99.90;;;;;;5058388;28;20043;-81
2024/01/28 02:38:39;;;;;;;15.10;6.18;;;3.30;99.90;;;;;;5040552;28;20036;-82
2024/01/28 02:41:05;;;;;;;13.52;5.15;;;3.20;99.90;;;;;;5055353;28;20062;-81
2024/01/28 02:43:31;;;;;;;11.27;4.63;;;3.30;99.90;;;;;;5057552;28;20028;-81
2024/01/28 02:45:56;;;;;;;11.68;5.10;;;3.20;99.90;;;;;;5058219;28;20040;-82
2024/01/28 02:48:22;;;;;;;16.20;6.40;;;3.20;99.90;;;;;;5057539;28;20446;-82
2024/01/28 02:50:47;;;;;;;18.17;6.35;;;3.20;99.90;;;;;;5057998;28;20094;-82
2024/01/28 02:53:14;;;;;;;19.90;5.95;;;3.20;99.90;;;;;;5039593;28;20045;-82
2024/01/28 02:55:39;;;;;;;14.10;6.40;;;3.00;99.90;;;;;;5041210;28;20036;-82
2024/01/28 02:58:05;;;;;;;16.65;6.43;;;3.00;99.90;;;;;;5040817;28;20374;-82
2024/01/28 03:00:31;;;;;;;14.20;6.53;;;2.90;99.90;;;;;;5040871;28;20425;-82
2024/01/28 03:02:56;;;;;;;12.77;6.60;;;3.00;99.90;;;;;;5040057;28;20040;-82
2024/01/28 03:05:22;;;;;;;15.85;5.97;;;2.90;99.90;;;;;;5057478;28;20036;-82
2024/01/28 03:07:48;;;;;;;15.52;5.70;;;2.90;99.90;;;;;;5057853;28;20045;-82
2024/01/28 03:10:13;;;;;;;16.25;7.10;;;2.90;99.90;;;;;;5041101;28;20086;-82
2024/01/28 03:12:39;;;;;;;13.73;6.43;;;3.00;99.90;;;;;;5039216;28;20047;-82
2024/01/28 03:15:05;;;;;;;13.77;6.25;;;3.10;99.90;;;;;;5056887;28;20040;-81
2024/01/28 03:17:31;;;;;;;15.30;6.10;;;3.10;99.90;;;;;;5057809;28;20033;-82
2024/01/28 03:19:57;;;;;;;14.90;7.07;;;3.10;99.90;;;;;;5057341;28;20139;-82
2024/01/28 03:22:22;;;;;;;15.93;6.40;;;3.20;99.90;;;;;;5039524;28;20392;-81
2024/01/28 03:24:48;;;;;;;12.27;5.10;;;3.20;99.90;;;;;;5039403;28;20036;-82
2024/01/28 03:27:14;;;;;;;14.68;5.93;;;3.20;99.90;;;;;;5039352;28;20040;-82
2024/01/28 03:29:40;;;;;;;15.93;6.70;;;3.20;99.90;;;;;;5040825;28;20047;-82
2024/01/28 03:32:06;;;;;;;13.95;5.93;;;3.20;99.90;;;;;;5056707;28;20036;-82
2024/01/28 03:34:32;;;;;;;15.60;5.18;;;3.10;99.90;;;;;;5056152;28;20119;-82
2024/01/28 03:36:57;;;;;;;13.82;5.68;;;3.10;99.90;;;;;;5040083;28;20045;-81
2024/01/28 03:39:23;;;;;;;15.15;6.20;;;3.10;99.90;;;;;;5039846;28;20068;-82
2024/01/28 03:41:48;;;;;;;18.20;5.85;;;3.10;99.90;;;;;;5040232;28;20036;-82
2024/01/28 03:44:19;;;;;;;13.75;5.88;;;3.00;99.90;;;;;;5037963;28;20049;-82
2024/01/28 03:46:45;;;;;;;13.35;5.90;;;3.00;99.90;;;;;;5055791;28;20059;-82
2024/01/28 03:49:10;;;;;;;12.38;6.18;;;2.90;99.90;;;;;;5040819;28;20385;-82
2024/01/28 03:51:36;;;;;;;18.60;7.32;;;2.90;99.90;;;;;;5056665;28;20043;-82
2024/01/28 03:54:02;;;;;;;12.45;6.65;;;2.80;99.90;;;;;;5054806;28;20427;-82
2024/01/28 03:56:27;;;;;;;16.63;6.43;;;2.80;99.90;;;;;;5054683;28;20032;-82
2024/01/28 03:58:53;;;;;;;16.63;6.18;;;2.80;99.90;;;;;;5040035;28;20049;-81
2024/01/28 04:01:35;;;;;;;13.80;6.43;;;2.80;99.90;;;;;;5040348;28;20043;-82
2024/01/28 04:04:01;;;;;;;14.27;7.22;;;2.80;99.90;;;;;;5054947;28;20489;-81
2024/01/28 04:06:27;;;;;;;14.68;6.07;;;2.80;99.90;;;;;;5055704;28;20040;-82
2024/01/28 04:08:57;;;;;;;15.88;7.25;;;2.80;99.90;;;;;;5056625;28;20071;-82
2024/01/28 04:11:27;;;;;;;14.00;6.40;;;2.70;99.90;;;;;;5056675;28;20052;-82
2024/01/28 04:13:56;;;;;;;14.25;6.60;;;2.70;99.90;;;;;;5055531;28;20036;-82
2024/01/28 04:16:22;;;;;;;16.23;6.63;;;2.70;99.90;;;;;;5038693;28;20033;-82
2024/01/28 04:18:49;;;;;;;15.68;7.43;;;2.70;99.90;;;;;;5056406;28;20504;-82
2024/01/28 04:21:15;;;;;;;18.48;7.78;;;2.70;99.90;;;;;;5056394;28;20047;-82
2024/01/28 04:23:41;;;;;;;15.90;7.20;;;2.70;99.90;;;;;;5030906;28;20036;-82
2024/01/28 04:26:07;;;;;;;17.33;6.53;;;2.80;99.90;;;;;;5070475;28;20393;-82
2024/01/28 04:28:32;;;;;;;17.55;6.60;;;2.70;99.90;;;;;;5039695;28;20044;-82
2024/01/28 04:30:58;;;;;;;14.75;6.70;;;2.80;99.90;;;;;;5056267;28;20040;-82
2024/01/28 04:33:24;;;;;;;13.80;6.68;;;2.80;99.90;;;;;;5038754;28;20025;-81
2024/01/28 04:35:50;;;;;;;15.93;9.02;;;2.90;99.90;;;;;;5054742;28;20032;-81
2024/01/28 04:38:16;;;;;;;16.40;6.95;;;2.90;99.90;;;;;;5072643;28;20511;-82
2024/01/28 04:40:42;;;;;;;13.18;6.40;;;2.80;99.90;;;;;;5038568;28;20029;-82
2024/01/28 04:43:07;;;;;;;17.15;7.97;;;2.80;99.90;;;;;;5056040;28;20115;-81
2024/01/28 04:45:33;;;;;;;13.82;6.68;;;2.80;99.90;;;;;;5055200;28;20041;-82
2024/01/28 04:47:59;;;;;;;17.83;7.05;;;2.80;99.90;;;;;;5038755;28;20044;-82
2024/01/28 04:50:25;;;;;;;20.80;7.05;;;2.70;99.90;;;;;;5039005;28;20492;-82
2024/01/28 04:52:51;;;;;;;16.90;7.13;;;2.70;99.90;;;;;;5054910;28;20144;-82
2024/01/28 04:55:17;;;;;;;17.20;6.45;;;2.70;99.90;;;;;;5054781;28;20086;-82
2024/01/28 04:57:43;;;;;;;14.30;6.93;;;2.60;99.90;;;;;;5037292;28;20037;-82
2024/01/28 05:00:14;;;;;;;13.85;6.75;;;2.60;99.90;;;;;;5039076;28;20056;-82
2024/01/28 05:02:39;;;;;;;14.57;7.03;;;2.70;99.90;;;;;;5054916;28;20047;-82
2024/01/28 05:05:05;;;;;;;17.00;6.50;;;2.80;99.90;;;;;;5038873;28;20032;-82
2024/01/28 05:07:31;;;;;;;14.93;6.18;;;2.80;99.90;;;;;;5037341;28;20064;-82
2024/01/28 05:09:57;;;;;;;11.82;5.32;;;2.70;99.90;;;;;;5039004;28;20066;-82
2024/01/28 05:12:23;;;;;;;14.07;6.72;;;2.80;99.90;;;;;;5054913;28;20127;-82
2024/01/28 05:14:49;;;;;;;12.65;5.72;;;2.80;99.90;;;;;;5038359;28;20033;-82
2024/01/28 05:17:15;;;;;;;16.10;6.28;;;2.70;99.90;;;;;;5037372;28;20040;-82
2024/01/28 05:19:41;;;;;;;15.07;6.43;;;2.60;99.90;;;;;;5038955;28;20186;-82
2024/01/28 05:22:07;;;;;;;15.50;6.40;;;2.70;99.90;;;;;;5037355;28;20045;-82
2024/01/28 05:24:33;;;;;;;17.23;5.95;;;2.70;99.90;;;;;;5037740;28;20404;-82
2024/01/28 05:26:59;;;;;;;14.65;6.00;;;2.70;99.90;;;;;;5037683;28;20037;-82
2024/01/28 05:29:25;;;;;;;13.88;5.55;;;2.70;99.90;;;;;;5053782;28;20076;-82
2024/01/28 05:31:52;;;;;;;11.65;5.10;;;2.70;99.90;;;;;;5018813;28;20037;-82
2024/01/28 05:34:18;;;;;;;13.55;6.45;;;2.80;99.90;;;;;;5035173;28;20063;-82
2024/01/28 05:36:51;;;;;;;14.30;5.75;;;2.70;99.90;;;;;;5035285;28;20036;-82
2024/01/28 05:39:17;;;;;;;13.00;6.15;;;2.60;99.90;;;;;;5036326;28;20040;-82
2024/01/28 05:41:43;;;;;;;14.05;6.22;;;2.50;99.90;;;;;;5055224;28;20036;-82
2024/01/28 05:44:09;;;;;;;14.88;6.47;;;2.50;99.90;;;;;;5054474;28;20154;-83
2024/01/28 05:46:35;;;;;;;15.85;6.25;;;2.50;99.90;;;;;;5038064;28;20051;-82
2024/01/28 05:49:01;;;;;;;14.13;6.50;;;2.50;99.90;;;;;;5052352;28;20051;-82
2024/01/28 05:51:27;;;;;;;14.00;5.65;;;2.50;99.90;;;;;;5037184;28;20131;-82
2024/01/28 05:53:54;;;;;;;19.88;6.20;;;2.50;99.90;;;;;;5055052;28;20049;-82
2024/01/28 05:56:20;;;;;;;17.83;8.32;;;2.40;99.90;;;;;;5038230;28;20029;-82
2024/01/28 05:58:46;;;;;;;15.65;7.10;;;2.40;99.90;;;;;;5036234;28;20132;-82
2024/01/28 06:01:12;;;;;;;16.20;6.88;;;2.40;99.90;;;;;;5039507;28;20117;-82
2024/01/28 06:03:38;;;;;;;13.68;6.50;;;2.40;99.90;;;;;;5042722;28;20408;-82
2024/01/28 06:06:04;;;;;;;14.45;6.20;;;2.40;99.90;;;;;;5042313;28;20044;-82
2024/01/28 06:08:29;;;;;;;12.15;6.20;;;2.40;99.90;;;;;;5039980;28;20381;-82
2024/01/28 06:10:56;;;;;;;17.55;6.80;;;2.40;99.90;;;;;;5074050;28;20041;-82
2024/01/28 06:13:21;;;;;;;17.50;7.20;;;2.30;99.90;;;;;;5041467;28;20045;-82
2024/01/28 06:15:47;;;;;;;16.17;7.03;;;2.20;99.90;;;;;;5042054;28;20060;-82
2024/01/28 06:18:13;;;;;;;14.20;6.80;;;2.20;99.90;;;;;;5036136;28;20040;-82
2024/01/28 06:20:38;;;;;;;14.73;6.40;;;2.20;99.90;;;;;;5041286;28;20037;-82
2024/01/28 06:23:04;;;;;;;15.65;7.05;;;2.20;99.90;;;;;;5057587;28;20044;-82
2024/01/28 06:25:30;;;;;;;15.02;6.30;;;2.20;99.90;;;;;;5057926;28;20036;-82
2024/01/28 06:27:55;;;;;;;12.38;5.85;;;2.20;99.90;;;;;;5052823;28;20041;-82
2024/01/28 06:30:21;;;;;;;13.52;6.05;;;2.20;99.90;;;;;;5038278;28;20044;-82
2024/01/28 06:32:47;;;;;;;14.63;6.78;;;2.30;99.90;;;;;;5022011;28;20044;-82
2024/01/28 06:35:12;;;;;;;14.63;7.07;;;2.20;99.90;;;;;;5022072;28;20043;-82
2024/01/28 06:37:39;;;;;;;14.05;5.90;;;2.20;99.90;;;;;;5023220;28;20451;-82
2024/01/28 06:40:06;;;;;;;14.25;6.35;;;2.20;99.90;;;;;;5039995;28;20559;-82
2024/01/28 06:42:32;;;;;;;12.68;6.03;;;2.20;99.90;;;;;;5027700;28;20112;-82
2024/01/28 06:44:59;;;;;;;14.05;6.57;;;2.10;99.90;;;;;;5054799;28;20079;-82
2024/01/28 06:47:25;;;;;;;14.10;6.78;;;2.10;99.90;;;;;;5041572;28;20059;-82
2024/01/28 06:49:51;;;;;;;16.10;6.57;;;2.10;99.90;;;;;;5040085;28;20553;-82
2024/01/28 06:52:17;;;;;;;13.10;6.40;;;2.10;99.90;;;;;;5039432;28;20040;-82
2024/01/28 06:54:42;;;;;;;12.27;6.78;;;2.10;99.90;;;;;;5057902;28;20098;-82
2024/01/28 06:57:08;;;;;;;14.82;7.18;;;2.10;99.90;;;;;;5035419;28;20404;-82
2024/01/28 06:59:35;;;;;;;11.38;6.57;;;2.00;99.90;;;;;;5050511;28;20509;-82
2024/01/28 07:02:00;;;;;;;17.90;6.90;;;2.10;99.90;;;;;;5045183;28;20033;-82
2024/01/28 07:04:26;;;;;;;12.68;6.40;;;2.10;99.90;;;;;;5053724;28;20043;-82
2024/01/28 07:06:52;;;;;;;11.15;6.22;;;2.10;99.90;;;;;;5057073;28;20045;-82
2024/01/28 07:09:18;;;;;;;12.73;6.22;;;2.30;99.90;;;;;;5040275;28;20036;-82
2024/01/28 07:11:44;;;;;;;13.98;7.40;;;2.10;99.90;;;;;;5069210;28;20041;-82
2024/01/28 07:14:10;;;;;;;14.52;6.40;;;2.10;99.90;;;;;;5045183;28;20083;-82
2024/01/28 07:16:36;;;;;;;16.23;6.80;;;2.10;99.90;;;;;;5055728;28;20028;-82
2024/01/28 07:19:02;;;;;;;14.10;6.93;;;2.10;99.90;;;;;;5071067;28;20094;-82
2024/01/28 07:21:27;;;;;;;16.88;7.07;;;2.00;99.90;;;;;;5057288;28;20032;-82
2024/01/28 07:23:53;;;;;;;15.05;6.18;;;2.00;99.90;;;;;;5052262;28;20037;-82
2024/01/28 07:26:21;;;;;;;17.35;6.65;;;2.00;99.90;;;;;;5056715;28;20072;-82
2024/01/28 07:28:47;;;;;;;15.75;7.50;;;2.00;99.90;;;;;;5055220;28;20064;-82
2024/01/28 07:31:13;;;;;;;14.27;6.75;;;2.00;99.90;;;;;;5056943;28;20075;-83
2024/01/28 07:33:38;;;;;;;14.65;6.15;;;2.00;99.90;;;;;;5038996;28;20549;-82
2024/01/28 07:36:04;;;;;;;8.02;5.00;;;2.00;99.90;;;;;;5039640;28;20093;-82
2024/01/28 07:38:30;;;;;;;13.57;6.13;;;2.00;99.90;;;;;;5055991;28;20064;-82
2024/01/28 07:40:55;;;;;;;13.40;6.03;;;2.10;99.90;;;;;;5036115;28;20116;-82
2024/01/28 07:43:23;;;;;;;13.32;5.90;;;2.10;99.90;;;;;;5051784;28;20132;-83
2024/01/28 07:45:50;;;;;;;8.65;4.15;;;2.10;99.90;;;;;;5043502;28;20493;-82
2024/01/28 07:48:16;;;;;;;11.70;6.18;;;2.10;99.90;;;;;;5020364;28;20041;-82
2024/01/28 07:50:42;;;;;;;12.20;6.13;;;2.10;99.90;;;;;;5052460;28;20044;-82
2024/01/28 07:53:08;;;;;;;12.85;6.15;;;2.00;99.90;;;;;;5039374;28;20040;-82
2024/01/28 07:55:34;;;;;;;14.32;6.68;;;1.90;99.90;;;;;;5058093;28;20190;-82
2024/01/28 07:57:59;;;;;;;13.35;6.80;;;2.00;99.90;;;;;;5058536;28;20116;-83
2024/01/28 08:00:25;;;;;;;15.15;6.75;;;2.00;99.90;;;;;;5027196;28;20067;-83
2024/01/28 08:02:52;;;;;;;13.82;6.70;;;2.00;99.90;;;;;;5017580;28;20047;-82
2024/01/28 08:05:18;;;;;;;12.88;6.45;;;2.00;99.90;;;;;;5019547;28;20051;-82
2024/01/28 08:07:44;;;;;;;13.95;6.20;;;2.00;99.90;;;;;;5047545;28;20074;-82
2024/01/28 08:10:09;;;;;;;17.50;6.90;;;2.00;99.90;;;;;;5029264;28;20055;-82
2024/01/28 08:12:35;;;;;;;14.15;6.63;;;2.00;99.90;;;;;;5031823;28;20040;-82
2024/01/28 08:15:00;;;;;;;7.88;4.05;;;2.10;99.90;;;;;;5031333;28;20082;-82
2024/01/28 08:17:26;;;;;;;19.08;5.85;;;2.20;99.90;;;;;;5028572;28;20037;-82
2024/01/28 08:19:52;;;;;;;15.02;6.50;;;2.20;99.90;;;;;;5010090;28;20508;-82
2024/01/28 08:22:17;;;;;;;14.95;7.13;;;2.30;99.90;;;;;;5028210;28;20040;-82
2024/01/28 08:24:43;;;;;;;13.55;6.22;;;2.20;99.90;;;;;;5055284;28;20070;-83
2024/01/28 08:27:09;;;;;;;14.63;6.15;;;2.30;99.90;;;;;;5015601;28;20044;-82
2024/01/28 08:29:34;;;;;;;10.65;5.50;;;2.30;99.90;;;;;;5031706;28;20052;-82
2024/01/28 08:32:00;;;;;;;10.52;5.20;;;2.30;99.90;;;;;;5009698;28;21013;-82
2024/01/28 08:34:25;;;;;;;10.57;5.15;;;2.30;99.90;;;;;;5040930;28;20044;-82
2024/01/28 08:36:51;;;;;;;11.52;5.88;;;2.40;99.90;;;;;;5018186;28;20040;-82
2024/01/28 08:39:17;;;;;;;14.38;5.90;;;2.40;99.90;;;;;;5026149;28;20045;-75
2024/01/28 08:41:42;;;;;;;14.02;6.40;;;2.30;99.90;;;;;;5021670;28;20055;-80
2024/01/28 08:44:11;;;;;;;14.80;5.47;;;2.30;99.90;;;;;;5033744;28;20032;-79
2024/01/28 08:46:40;;;;;;;12.13;6.47;;;2.30;99.90;;;;;;5012576;28;20494;-80
2024/01/28 08:49:06;;;;;;;11.73;5.97;;;2.40;99.90;;;;;;5035985;28;20131;-79
2024/01/28 08:51:31;;;;;;;12.05;5.53;;;2.40;99.90;;;;;;5037353;28;20400;-79
2024/01/28 08:53:57;;;;;;;14.30;6.22;;;2.40;99.90;;;;;;5038116;28;20044;-79
2024/01/28 08:56:23;;;;;;;11.88;6.00;;;2.40;99.90;;;;;;5049650;28;20032;-79
2024/01/28 08:58:48;;;;;;;12.48;4.50;;;2.40;99.90;;;;;;5049094;28;20044;-79
2024/01/28 09:01:14;;;;;;;12.10;4.82;;;2.50;99.90;;;;;;5023953;28;20409;-80
2024/01/28 09:03:40;;;;;;;8.38;3.75;;;2.60;99.90;;;;;;5021788;28;20047;-80
2024/01/28 09:06:06;;;;;;;9.65;4.60;;;2.60;99.90;;;;;;5013979;28;20052;-79
2024/01/28 09:08:32;;;;;;;12.57;4.97;;;2.60;99.90;;;;;;5048985;28;20149;-79
2024/01/28 09:10:58;;;;;;;11.40;4.97;;;2.60;99.90;;;;;;5020478;28;20048;-79
2024/01/28 09:13:24;;;;;;;13.75;5.28;;;2.70;99.90;;;;;;5014849;28;20045;-79
2024/01/28 09:15:50;;;;;;;10.40;4.97;;;2.70;99.90;;;;;;5049002;28;20393;-79
2024/01/28 09:18:16;;;;;;;12.70;5.57;;;2.70;99.90;;;;;;5015881;28;20516;-79
2024/01/28 09:20:42;;;;;;;11.55;4.35;;;2.80;99.90;;;;;;5017619;28;20028;-79
2024/01/28 09:23:07;;;;;;;10.50;4.32;;;3.00;99.90;;;;;;5038278;28;20040;-79
2024/01/28 09:25:34;;;;;;;9.05;3.72;;;3.00;99.90;;;;;;5034555;28;20043;-79
2024/01/28 09:28:00;;;;;;;10.57;4.57;;;3.10;99.90;;;;;;5018120;28;21898;-74
2024/01/28 09:30:25;;;;;;;9.35;4.10;;;3.10;99.90;;;;;;5014163;28;20555;-75
2024/01/28 09:32:51;;;;;;;10.90;3.70;;;3.30;99.90;;;;;;5036757;28;20194;-75
2024/01/28 09:35:17;;;;;;;10.90;4.75;;;3.20;99.90;;;;;;5023099;28;20389;-79
2024/01/28 09:37:42;;;;;;;11.98;4.38;;;3.30;99.90;;;;;;5047140;28;20029;-79
2024/01/28 09:40:11;;;;;;;15.18;4.78;;;3.30;99.90;;;;;;5051350;28;20082;-79
2024/01/28 09:42:46;;;;;;;12.32;3.60;;;3.30;99.90;;;;;;5053437;28;20036;-79
2024/01/28 09:45:13;;;;;;;10.65;4.40;;;3.50;99.90;;;;;;5034250;28;20044;-79
2024/01/28 09:47:40;;;;;;;7.68;3.60;;;3.50;99.90;;;;;;5052801;28;20116;-79
2024/01/28 09:50:08;;;;;;;11.30;4.18;;;3.60;99.90;;;;;;5038170;28;20040;-79
2024/01/28 09:52:33;;;;;;;9.65;4.45;;;3.70;99.90;;;;;;5036916;28;20051;-79
2024/01/28 09:54:59;;;;;;;12.20;5.25;;;3.70;99.90;;;;;;5037837;28;20493;-79
2024/01/28 09:57:25;;;;;;;11.60;5.80;;;3.80;99.90;;;;;;5051387;28;20047;-79
2024/01/28 09:59:51;;;;;;;9.70;4.03;;;3.90;99.90;;;;;;5052054;28;20059;-78
2024/01/28 10:02:17;;;;;;;10.27;4.85;;;4.20;99.90;;;;;;5054284;28;20409;-78
2024/01/28 10:04:45;;;;;;;15.45;5.10;;;4.20;99.90;;;;;;5036304;28;20044;-79
2024/01/28 10:07:11;;;;;;;11.07;4.75;;;4.40;99.90;;;;;;5036074;28;20040;-78
2024/01/28 10:09:37;;;;;;;12.05;4.47;;;4.40;99.90;;;;;;5053135;28;20393;-78
2024/01/28 10:12:04;;;;;;;10.15;3.88;;;4.70;99.90;;;;;;5052374;28;20043;-78
2024/01/28 10:14:30;;;;;;;10.63;4.22;;;4.90;99.90;;;;;;5053173;28;20398;-78
2024/01/28 10:16:58;;;;;;;9.43;3.70;;;4.90;99.90;;;;;;5048378;28;20040;-78
2024/01/28 10:19:24;;;;;;;10.18;3.55;;;5.00;99.90;;;;;;5065078;28;20370;-78
2024/01/28 10:21:51;;;;;;;8.95;3.70;;;5.10;99.90;;;;;;5036426;28;20048;-78
2024/01/28 10:24:17;;;;;;;11.50;3.05;;;5.20;99.90;;;;;;5053390;28;20044;-78
2024/01/28 10:26:43;;;;;;;7.55;2.53;;;5.20;99.90;;;;;;5065085;28;20040;-78
2024/01/28 10:29:10;;;;;;;8.30;2.85;;;5.50;99.90;;;;;;5052921;28;20052;-78
2024/01/28 10:31:39;;;;;;;7.45;2.42;;;5.30;99.90;;;;;;5052739;28;20029;-78
2024/01/28 10:34:05;;;;;;;7.43;3.05;;;5.40;99.90;;;;;;5048412;28;20052;-78
2024/01/28 10:36:33;;;;;;;9.90;3.60;;;5.50;99.90;;;;;;5052963;28;20036;-78
2024/01/28 10:39:04;;;;;;;7.60;3.05;;;5.60;99.90;;;;;;5035786;28;20032;-78
2024/01/28 10:41:32;;;;;;;7.10;2.72;;;5.80;99.90;;;;;;5033783;28;20036;-79
2024/01/28 10:44:02;;;;;;;7.05;3.00;;;6.00;99.90;;;;;;5033569;28;20048;-78
2024/01/28 10:46:44;;;;;;;7.45;2.55;;;6.10;99.90;;;;;;5051521;28;20047;-78
2024/01/28 10:49:11;;;;;;;7.97;2.83;;;6.20;99.90;;;;;;5036489;28;20068;-78
2024/01/28 10:51:39;;;;;;;8.60;3.00;;;6.30;99.90;;;;;;5055922;28;20424;-78
2024/01/28 10:54:10;;;;;;;4.35;1.98;;;6.30;99.90;;;;;;5053764;28;20412;-79
2024/01/28 10:56:37;;;;;;;7.30;2.60;;;6.50;99.90;;;;;;5034810;28;20060;-79
2024/01/28 10:59:03;;;;;;;8.63;2.63;;;6.60;99.90;;;;;;5069206;28;20056;-78
2024/01/28 11:01:30;;;;;;;10.98;3.15;;;6.60;99.90;;;;;;5056092;28;20689;-79
2024/01/28 11:03:57;;;;;;;6.63;2.47;;;6.60;99.90;;;;;;5038687;28;20059;-78
2024/01/28 11:06:29;;;;;;;8.63;2.65;;;6.70;99.90;;;;;;5055882;28;20044;-79
2024/01/28 11:08:58;;;;;;;5.78;2.78;;;6.70;99.90;;;;;;5054913;28;20106;-79
2024/01/28 11:11:24;;;;;;;8.23;2.65;;;6.70;99.90;;;;;;5056291;28;20370;-79
2024/01/28 11:13:49;;;;;;;9.15;2.85;;;6.90;99.90;;;;;;5036058;28;20032;-79
2024/01/28 11:16:15;;;;;;;9.10;3.22;;;6.90;99.90;;;;;;5037468;28;20508;-79
2024/01/28 11:18:58;;;;;;;6.53;2.28;;;6.90;99.90;;;;;;5054768;28;20090;-79
2024/01/28 11:21:24;;;;;;;;;;;7.00;99.90;;;;;;5053510;28;20404;-78
2024/01/28 11:23:53;;;;;;;5.63;2.13;;;7.10;99.90;;;;;;5037064;28;20385;-79
2024/01/28 11:26:20;;;;;;;5.85;2.50;;;7.00;99.90;;;;;;5054099;28;20050;-79
2024/01/28 11:28:50;;;;;;;6.07;3.25;;;7.10;99.90;;;;;;5038057;28;20036;-79
2024/01/28 11:31:30;;;;;;;9.43;3.08;;;7.10;99.90;;;;;;5040136;28;20404;-79
2024/01/28 11:34:06;;;;;;;8.55;2.88;;;7.00;99.90;;;;;;5037069;28;20492;-79
2024/01/28 11:36:36;;;;;;;7.80;2.78;;;7.00;99.90;;;;;;5055067;28;20068;-78
2024/01/28 11:39:05;;;;;;;9.55;3.00;;;7.20;99.90;;;;;;5053380;28;20119;-79
2024/01/28 11:41:37;;;;;;;7.35;2.83;;;7.00;99.90;;;;;;5056273;28;20614;-78
2024/01/28 11:44:04;;;;;;;8.32;2.90;;;7.00;99.90;;;;;;5055762;28;20377;-79
2024/01/28 11:46:30;;;;;;;8.57;3.13;;;7.00;99.90;;;;;;5039173;28;20048;-79
2024/01/28 11:48:56;;;;;;;8.68;2.92;;;7.00;99.90;;;;;;5061627;28;20040;-79
2024/01/28 11:51:22;;;;;;;6.82;2.53;;;7.00;99.90;;;;;;5054242;28;20037;-79
2024/01/28 11:53:47;;;;;;;5.80;2.65;;;7.00;99.90;;;;;;5037031;28;20037;-79
2024/01/28 11:56:13;;;;;;;8.82;2.85;;;6.90;99.90;;;;;;5037595;28;20032;-79
2024/01/28 11:58:38;;;;;;;7.32;2.50;;;7.00;99.90;;;;;;5037817;28;20033;-78
2024/01/28 12:01:04;;;;;;;8.30;2.55;;;6.90;99.90;;;;;;5046371;28;20052;-79
2024/01/28 12:03:30;;;;;;;7.18;2.45;;;6.90;99.90;;;;;;5045090;28;20098;-79
2024/01/28 12:05:58;;;;;;;7.05;2.28;;;7.00;99.90;;;;;;5052269;28;20046;-79
2024/01/28 12:08:26;;;;;;;5.85;2.28;;;7.00;99.90;;;;;;5039205;28;20047;-78
2024/01/28 12:11:13;;;;;;;8.50;2.80;;;7.10;99.90;;;;;;5037450;28;20051;-78
2024/01/28 12:13:39;;;;;;;7.68;2.30;;;7.10;99.90;;;;;;5038771;28;20562;-79
2024/01/28 12:16:06;;;;;;;7.57;2.50;;;7.10;99.90;;;;;;5052931;28;20094;-79
2024/01/28 12:18:41;;;;;;;6.55;1.95;;;7.10;99.90;;;;;;5038488;28;20481;-79
2024/01/28 12:21:19;;;;;;;4.32;1.65;;;7.20;99.90;;;;;;5036903;28;20043;-79
2024/01/28 12:23:57;;;;;;;6.72;2.47;;;7.30;99.90;;;;;;5051950;28;20041;-79
2024/01/28 12:26:23;;;;;;;7.80;2.42;;;7.20;99.90;;;;;;5030947;28;20119;-79
2024/01/28 12:28:51;;;;;;;5.13;2.20;;;7.20;99.90;;;;;;5033072;28;20055;-79
2024/01/28 12:31:20;;;;;;;6.70;2.65;;;7.00;99.90;;;;;;5037241;28;20044;-78
2024/01/28 12:33:47;;;;;;;6.82;2.20;;;7.20;99.90;;;;;;5036952;28;20074;-79
2024/01/28 12:36:13;;;;;;;8.32;2.75;;;7.20;99.90;;;;;;5053445;28;20397;-78
2024/01/28 12:38:39;;;;;;;6.10;2.30;;;7.30;99.90;;;;;;5052557;28;20082;-79
2024/01/28 12:41:05;;;;;;;8.02;2.47;;;7.20;99.90;;;;;;5053444;28;20489;-78
2024/01/28 12:43:34;;;;;;;9.65;2.67;;;7.20;99.90;;;;;;5036110;28;20063;-79
2024/01/28 12:46:00;;;;;;;5.25;2.60;;;7.30;99.90;;;;;;5034033;28;20094;-78